sensor_id;sensor_type;location;lat;lon;timestamp;P1;durP1;ratioP1;P2;durP2;ratioP2
73585;SDS011;61865;50.232;18.614;2024-01-06T00:00:13;218.90;;;36.75;;
73585;SDS011;61865;50.232;18.614;2024-01-06T00:02:36;233.30;;;36.83;;
73585;SDS011;61865;50.232;18.614;2024-01-06T00:05:00;220.68;;;36.63;;
73585;SDS011;61865;50.232;18.614;2024-01-06T00:07:22;356.27;;;42.58;;
73585;SDS011;61865;50.232;18.614;2024-01-06T00:09:44;164.90;;;31.48;;
73585;SDS011;61865;50.232;18.614;2024-01-06T00:12:07;299.20;;;38.58;;
73585;SDS011;61865;50.232;18.614;2024-01-06T00:14:29;529.30;;;48.42;;
73585;SDS011;61865;50.232;18.614;2024-01-06T00:16:52;276.88;;;37.40;;
73585;SDS011;61865;50.232;18.614;2024-01-06T00:19:14;326.48;;;40.55;;
73585;SDS011;61865;50.232;18.614;2024-01-06T00:21:39;225.38;;;31.88;;
73585;SDS011;61865;50.232;18.614;2024-01-06T00:24:01;164.90;;;30.27;;
73585;SDS011;61865;50.232;18.614;2024-01-06T00:26:23;208.38;;;33.85;;
73585;SDS011;61865;50.232;18.614;2024-01-06T00:28:45;224.80;;;35.90;;
73585;SDS011;61865;50.232;18.614;2024-01-06T00:31:09;161.63;;;32.05;;
73585;SDS011;61865;50.232;18.614;2024-01-06T00:33:31;152.57;;;32.17;;
73585;SDS011;61865;50.232;18.614;2024-01-06T00:35:53;207.43;;;37.30;;
73585;SDS011;61865;50.232;18.614;2024-01-06T00:38:17;311.88;;;39.15;;
73585;SDS011;61865;50.232;18.614;2024-01-06T00:40:40;267.20;;;35.40;;
73585;SDS011;61865;50.232;18.614;2024-01-06T00:43:02;156.98;;;28.35;;
73585;SDS011;61865;50.232;18.614;2024-01-06T00:45:24;218.05;;;33.63;;
73585;SDS011;61865;50.232;18.614;2024-01-06T00:47:47;207.32;;;33.00;;
73585;SDS011;61865;50.232;18.614;2024-01-06T00:50:09;140.75;;;31.48;;
73585;SDS011;61865;50.232;18.614;2024-01-06T00:52:32;194.45;;;35.67;;
73585;SDS011;61865;50.232;18.614;2024-01-06T00:54:59;166.23;;;33.30;;
73585;SDS011;61865;50.232;18.614;2024-01-06T00:57:21;172.05;;;35.25;;
73585;SDS011;61865;50.232;18.614;2024-01-06T00:59:44;208.55;;;32.97;;
73585;SDS011;61865;50.232;18.614;2024-01-06T01:02:06;230.77;;;34.38;;
73585;SDS011;61865;50.232;18.614;2024-01-06T01:04:28;181.10;;;32.38;;
73585;SDS011;61865;50.232;18.614;2024-01-06T01:09:12;102.10;;;27.80;;
73585;SDS011;61865;50.232;18.614;2024-01-06T01:11:36;112.95;;;28.88;;
73585;SDS011;61865;50.232;18.614;2024-01-06T01:13:58;190.15;;;34.67;;
73585;SDS011;61865;50.232;18.614;2024-01-06T01:16:20;230.43;;;32.63;;
73585;SDS011;61865;50.232;18.614;2024-01-06T01:18:42;273.10;;;36.97;;
73585;SDS011;61865;50.232;18.614;2024-01-06T01:21:05;164.85;;;30.50;;
73585;SDS011;61865;50.232;18.614;2024-01-06T01:23:27;146.98;;;29.45;;
73585;SDS011;61865;50.232;18.614;2024-01-06T01:25:49;255.80;;;35.40;;
73585;SDS011;61865;50.232;18.614;2024-01-06T01:28:14;248.30;;;35.10;;
73585;SDS011;61865;50.232;18.614;2024-01-06T01:30:36;212.75;;;31.38;;
73585;SDS011;61865;50.232;18.614;2024-01-06T01:32:58;262.40;;;38.22;;
73585;SDS011;61865;50.232;18.614;2024-01-06T01:35:20;168.68;;;32.35;;
73585;SDS011;61865;50.232;18.614;2024-01-06T01:37:43;221.60;;;34.92;;
73585;SDS011;61865;50.232;18.614;2024-01-06T01:40:07;271.13;;;40.17;;
73585;SDS011;61865;50.232;18.614;2024-01-06T01:42:31;225.20;;;36.30;;
73585;SDS011;61865;50.232;18.614;2024-01-06T01:44:54;218.20;;;34.42;;
73585;SDS011;61865;50.232;18.614;2024-01-06T01:47:19;201.60;;;35.20;;
73585;SDS011;61865;50.232;18.614;2024-01-06T01:49:41;237.13;;;36.22;;
73585;SDS011;61865;50.232;18.614;2024-01-06T01:52:04;207.43;;;35.63;;
73585;SDS011;61865;50.232;18.614;2024-01-06T01:54:26;154.20;;;33.45;;
73585;SDS011;61865;50.232;18.614;2024-01-06T01:56:49;180.10;;;33.75;;
73585;SDS011;61865;50.232;18.614;2024-01-06T01:59:12;161.63;;;32.38;;
73585;SDS011;61865;50.232;18.614;2024-01-06T02:01:36;172.38;;;33.95;;
73585;SDS011;61865;50.232;18.614;2024-01-06T02:03:58;203.30;;;34.92;;
73585;SDS011;61865;50.232;18.614;2024-01-06T02:06:21;198.30;;;36.47;;
73585;SDS011;61865;50.232;18.614;2024-01-06T02:08:43;158.32;;;33.38;;
73585;SDS011;61865;50.232;18.614;2024-01-06T02:11:06;138.50;;;37.65;;
73585;SDS011;61865;50.232;18.614;2024-01-06T02:13:32;150.90;;;36.97;;
73585;SDS011;61865;50.232;18.614;2024-01-06T02:15:55;135.25;;;36.55;;
73585;SDS011;61865;50.232;18.614;2024-01-06T02:18:19;119.25;;;36.60;;
73585;SDS011;61865;50.232;18.614;2024-01-06T02:20:43;107.32;;;35.80;;
73585;SDS011;61865;50.232;18.614;2024-01-06T02:23:08;91.05;;;33.05;;
73585;SDS011;61865;50.232;18.614;2024-01-06T02:25:31;87.63;;;33.15;;
73585;SDS011;61865;50.232;18.614;2024-01-06T02:27:55;102.18;;;33.25;;
73585;SDS011;61865;50.232;18.614;2024-01-06T02:30:17;107.88;;;34.17;;
73585;SDS011;61865;50.232;18.614;2024-01-06T02:32:39;95.30;;;34.03;;
73585;SDS011;61865;50.232;18.614;2024-01-06T02:35:02;80.35;;;33.08;;
73585;SDS011;61865;50.232;18.614;2024-01-06T02:37:24;97.50;;;35.55;;
73585;SDS011;61865;50.232;18.614;2024-01-06T02:39:51;88.03;;;33.20;;
73585;SDS011;61865;50.232;18.614;2024-01-06T02:42:13;89.00;;;32.22;;
73585;SDS011;61865;50.232;18.614;2024-01-06T02:44:35;89.65;;;33.85;;
73585;SDS011;61865;50.232;18.614;2024-01-06T02:46:58;82.05;;;34.30;;
73585;SDS011;61865;50.232;18.614;2024-01-06T02:49:20;83.35;;;32.53;;
73585;SDS011;61865;50.232;18.614;2024-01-06T02:51:42;89.57;;;34.63;;
73585;SDS011;61865;50.232;18.614;2024-01-06T02:54:04;89.55;;;33.63;;
73585;SDS011;61865;50.232;18.614;2024-01-06T02:56:28;86.38;;;32.28;;
73585;SDS011;61865;50.232;18.614;2024-01-06T02:58:50;76.72;;;30.02;;
73585;SDS011;61865;50.232;18.614;2024-01-06T03:01:12;95.10;;;31.10;;
73585;SDS011;61865;50.232;18.614;2024-01-06T03:03:35;94.45;;;34.20;;
73585;SDS011;61865;50.232;18.614;2024-01-06T03:05:57;83.30;;;32.70;;
73585;SDS011;61865;50.232;18.614;2024-01-06T03:08:20;71.30;;;30.90;;
73585;SDS011;61865;50.232;18.614;2024-01-06T03:10:42;79.43;;;30.77;;
73585;SDS011;61865;50.232;18.614;2024-01-06T03:13:06;78.55;;;30.63;;
73585;SDS011;61865;50.232;18.614;2024-01-06T03:15:28;79.43;;;29.13;;
73585;SDS011;61865;50.232;18.614;2024-01-06T03:17:50;69.20;;;30.02;;
73585;SDS011;61865;50.232;18.614;2024-01-06T03:20:13;69.07;;;29.23;;
73585;SDS011;61865;50.232;18.614;2024-01-06T03:22:35;68.55;;;27.83;;
73585;SDS011;61865;50.232;18.614;2024-01-06T03:24:58;72.70;;;29.23;;
73585;SDS011;61865;50.232;18.614;2024-01-06T03:27:20;51.53;;;27.15;;
73585;SDS011;61865;50.232;18.614;2024-01-06T03:29:44;65.75;;;28.92;;
73585;SDS011;61865;50.232;18.614;2024-01-06T03:32:06;73.88;;;28.48;;
73585;SDS011;61865;50.232;18.614;2024-01-06T03:34:28;63.05;;;26.98;;
73585;SDS011;61865;50.232;18.614;2024-01-06T03:36:51;58.88;;;28.40;;
73585;SDS011;61865;50.232;18.614;2024-01-06T03:39:13;69.30;;;30.38;;
73585;SDS011;61865;50.232;18.614;2024-01-06T03:41:35;64.63;;;29.80;;
73585;SDS011;61865;50.232;18.614;2024-01-06T03:43:57;64.20;;;29.00;;
73585;SDS011;61865;50.232;18.614;2024-01-06T03:46:21;54.45;;;27.20;;
73585;SDS011;61865;50.232;18.614;2024-01-06T03:48:43;60.47;;;27.63;;
73585;SDS011;61865;50.232;18.614;2024-01-06T03:51:06;63.20;;;28.98;;
73585;SDS011;61865;50.232;18.614;2024-01-06T03:53:28;62.15;;;28.75;;
73585;SDS011;61865;50.232;18.614;2024-01-06T03:55:50;73.85;;;29.90;;
73585;SDS011;61865;50.232;18.614;2024-01-06T03:58:13;84.88;;;32.53;;
73585;SDS011;61865;50.232;18.614;2024-01-06T04:00:35;84.78;;;34.90;;
73585;SDS011;61865;50.232;18.614;2024-01-06T04:02:59;83.55;;;34.40;;
73585;SDS011;61865;50.232;18.614;2024-01-06T04:05:21;71.93;;;33.55;;
73585;SDS011;61865;50.232;18.614;2024-01-06T04:07:43;69.88;;;30.80;;
73585;SDS011;61865;50.232;18.614;2024-01-06T04:10:05;79.28;;;34.03;;
73585;SDS011;61865;50.232;18.614;2024-01-06T04:12:28;77.03;;;33.33;;
73585;SDS011;61865;50.232;18.614;2024-01-06T04:14:50;81.53;;;32.75;;
73585;SDS011;61865;50.232;18.614;2024-01-06T04:17:13;71.93;;;32.83;;
73585;SDS011;61865;50.232;18.614;2024-01-06T04:19:36;71.80;;;33.00;;
73585;SDS011;61865;50.232;18.614;2024-01-06T04:21:59;74.65;;;32.55;;
73585;SDS011;61865;50.232;18.614;2024-01-06T04:24:21;72.47;;;30.30;;
73585;SDS011;61865;50.232;18.614;2024-01-06T04:26:43;75.22;;;33.15;;
73585;SDS011;61865;50.232;18.614;2024-01-06T04:29:06;64.53;;;31.52;;
73585;SDS011;61865;50.232;18.614;2024-01-06T04:31:28;70.70;;;32.55;;
73585;SDS011;61865;50.232;18.614;2024-01-06T04:33:50;72.65;;;32.15;;
73585;SDS011;61865;50.232;18.614;2024-01-06T04:36:14;65.90;;;31.70;;
73585;SDS011;61865;50.232;18.614;2024-01-06T04:38:36;71.40;;;33.72;;
73585;SDS011;61865;50.232;18.614;2024-01-06T04:43:29;69.95;;;32.78;;
73585;SDS011;61865;50.232;18.614;2024-01-06T04:45:51;62.78;;;32.83;;
73585;SDS011;61865;50.232;18.614;2024-01-06T04:48:13;78.13;;;35.25;;
73585;SDS011;61865;50.232;18.614;2024-01-06T04:50:36;84.57;;;35.28;;
73585;SDS011;61865;50.232;18.614;2024-01-06T04:52:59;83.78;;;37.10;;
73585;SDS011;61865;50.232;18.614;2024-01-06T04:55:21;84.43;;;37.47;;
73585;SDS011;61865;50.232;18.614;2024-01-06T04:57:44;86.13;;;36.97;;
73585;SDS011;61865;50.232;18.614;2024-01-06T05:00:06;74.07;;;37.67;;
73585;SDS011;61865;50.232;18.614;2024-01-06T05:02:29;84.47;;;37.20;;
73585;SDS011;61865;50.232;18.614;2024-01-06T05:04:51;79.55;;;34.00;;
73585;SDS011;61865;50.232;18.614;2024-01-06T05:07:13;73.13;;;35.42;;
73585;SDS011;61865;50.232;18.614;2024-01-06T05:09:37;82.70;;;39.38;;
73585;SDS011;61865;50.232;18.614;2024-01-06T05:11:59;86.90;;;40.40;;
73585;SDS011;61865;50.232;18.614;2024-01-06T05:14:21;95.00;;;41.92;;
73585;SDS011;61865;50.232;18.614;2024-01-06T05:16:43;88.50;;;42.30;;
73585;SDS011;61865;50.232;18.614;2024-01-06T05:19:06;90.85;;;43.28;;
73585;SDS011;61865;50.232;18.614;2024-01-06T05:21:28;94.80;;;41.50;;
73585;SDS011;61865;50.232;18.614;2024-01-06T05:23:50;90.32;;;39.67;;
73585;SDS011;61865;50.232;18.614;2024-01-06T05:26:14;77.68;;;38.00;;
73585;SDS011;61865;50.232;18.614;2024-01-06T05:28:36;88.75;;;39.55;;
73585;SDS011;61865;50.232;18.614;2024-01-06T05:30:58;84.18;;;39.33;;
73585;SDS011;61865;50.232;18.614;2024-01-06T05:33:20;87.43;;;41.50;;
73585;SDS011;61865;50.232;18.614;2024-01-06T05:35:43;95.82;;;40.63;;
73585;SDS011;61865;50.232;18.614;2024-01-06T05:38:05;86.82;;;40.50;;
73585;SDS011;61865;50.232;18.614;2024-01-06T05:40:27;76.15;;;37.17;;
73585;SDS011;61865;50.232;18.614;2024-01-06T05:42:51;81.82;;;38.47;;
73585;SDS011;61865;50.232;18.614;2024-01-06T05:45:15;79.60;;;37.85;;
73585;SDS011;61865;50.232;18.614;2024-01-06T05:47:37;80.68;;;36.10;;
73585;SDS011;61865;50.232;18.614;2024-01-06T05:50:00;71.47;;;34.85;;
73585;SDS011;61865;50.232;18.614;2024-01-06T05:52:21;78.43;;;37.65;;
73585;SDS011;61865;50.232;18.614;2024-01-06T05:54:43;66.70;;;34.97;;
73585;SDS011;61865;50.232;18.614;2024-01-06T05:57:05;72.80;;;37.40;;
73585;SDS011;61865;50.232;18.614;2024-01-06T05:59:29;77.75;;;38.28;;
73585;SDS011;61865;50.232;18.614;2024-01-06T06:01:54;78.95;;;38.55;;
73585;SDS011;61865;50.232;18.614;2024-01-06T06:04:16;75.50;;;36.38;;
73585;SDS011;61865;50.232;18.614;2024-01-06T06:06:38;75.22;;;37.10;;
73585;SDS011;61865;50.232;18.614;2024-01-06T06:09:01;74.57;;;36.40;;
73585;SDS011;61865;50.232;18.614;2024-01-06T06:11:26;73.97;;;36.72;;
73585;SDS011;61865;50.232;18.614;2024-01-06T06:13:49;76.35;;;36.10;;
73585;SDS011;61865;50.232;18.614;2024-01-06T06:16:12;75.18;;;36.97;;
73585;SDS011;61865;50.232;18.614;2024-01-06T06:18:34;73.03;;;35.58;;
73585;SDS011;61865;50.232;18.614;2024-01-06T06:20:57;68.72;;;36.67;;
73585;SDS011;61865;50.232;18.614;2024-01-06T06:23:19;70.18;;;36.45;;
73585;SDS011;61865;50.232;18.614;2024-01-06T06:25:41;71.80;;;34.67;;
73585;SDS011;61865;50.232;18.614;2024-01-06T06:28:04;78.60;;;37.28;;
73585;SDS011;61865;50.232;18.614;2024-01-06T06:30:26;70.82;;;37.35;;
73585;SDS011;61865;50.232;18.614;2024-01-06T06:32:50;68.15;;;36.80;;
73585;SDS011;61865;50.232;18.614;2024-01-06T06:35:12;76.43;;;36.55;;
73585;SDS011;61865;50.232;18.614;2024-01-06T06:37:34;72.32;;;38.60;;
73585;SDS011;61865;50.232;18.614;2024-01-06T06:39:57;66.03;;;35.47;;
73585;SDS011;61865;50.232;18.614;2024-01-06T06:42:19;62.15;;;31.92;;
73585;SDS011;61865;50.232;18.614;2024-01-06T06:44:41;69.20;;;35.35;;
73585;SDS011;61865;50.232;18.614;2024-01-06T06:47:04;76.18;;;37.78;;
73585;SDS011;61865;50.232;18.614;2024-01-06T06:49:27;74.25;;;37.17;;
73585;SDS011;61865;50.232;18.614;2024-01-06T06:51:49;77.03;;;36.80;;
73585;SDS011;61865;50.232;18.614;2024-01-06T06:54:12;76.10;;;37.28;;
73585;SDS011;61865;50.232;18.614;2024-01-06T06:56:34;71.38;;;38.25;;
73585;SDS011;61865;50.232;18.614;2024-01-06T06:58:57;73.00;;;37.55;;
73585;SDS011;61865;50.232;18.614;2024-01-06T07:01:19;65.15;;;33.05;;
73585;SDS011;61865;50.232;18.614;2024-01-06T07:03:41;61.22;;;33.13;;
73585;SDS011;61865;50.232;18.614;2024-01-06T07:06:05;69.93;;;34.42;;
73585;SDS011;61865;50.232;18.614;2024-01-06T07:08:27;70.07;;;35.60;;
73585;SDS011;61865;50.232;18.614;2024-01-06T07:10:50;72.15;;;38.13;;
73585;SDS011;61865;50.232;18.614;2024-01-06T07:13:12;61.92;;;34.92;;
73585;SDS011;61865;50.232;18.614;2024-01-06T07:15:34;65.03;;;33.83;;
73585;SDS011;61865;50.232;18.614;2024-01-06T07:17:56;74.15;;;36.63;;
73585;SDS011;61865;50.232;18.614;2024-01-06T07:20:19;77.70;;;39.95;;
73585;SDS011;61865;50.232;18.614;2024-01-06T07:22:42;84.45;;;41.67;;
73585;SDS011;61865;50.232;18.614;2024-01-06T07:25:05;98.78;;;48.13;;
73585;SDS011;61865;50.232;18.614;2024-01-06T07:27:27;95.72;;;47.08;;
73585;SDS011;61865;50.232;18.614;2024-01-06T07:29:49;103.22;;;47.67;;
73585;SDS011;61865;50.232;18.614;2024-01-06T07:32:12;86.50;;;43.72;;
73585;SDS011;61865;50.232;18.614;2024-01-06T07:34:34;88.18;;;46.15;;
73585;SDS011;61865;50.232;18.614;2024-01-06T07:36:56;86.88;;;42.83;;
73585;SDS011;61865;50.232;18.614;2024-01-06T07:39:20;94.18;;;43.45;;
73585;SDS011;61865;50.232;18.614;2024-01-06T07:41:44;96.72;;;45.38;;
73585;SDS011;61865;50.232;18.614;2024-01-06T07:44:06;89.13;;;43.38;;
73585;SDS011;61865;50.232;18.614;2024-01-06T07:46:28;109.95;;;51.75;;
73585;SDS011;61865;50.232;18.614;2024-01-06T07:48:52;106.45;;;47.63;;
73585;SDS011;61865;50.232;18.614;2024-01-06T07:51:14;113.97;;;54.05;;
73585;SDS011;61865;50.232;18.614;2024-01-06T07:53:37;115.63;;;58.78;;
73585;SDS011;61865;50.232;18.614;2024-01-06T07:56:01;118.95;;;56.15;;
73585;SDS011;61865;50.232;18.614;2024-01-06T07:58:23;123.70;;;58.13;;
73585;SDS011;61865;50.232;18.614;2024-01-06T08:00:45;127.15;;;58.40;;
73585;SDS011;61865;50.232;18.614;2024-01-06T08:03:08;124.53;;;58.33;;
73585;SDS011;61865;50.232;18.614;2024-01-06T08:05:31;127.13;;;58.63;;
73585;SDS011;61865;50.232;18.614;2024-01-06T08:07:54;122.63;;;56.53;;
73585;SDS011;61865;50.232;18.614;2024-01-06T08:10:16;114.05;;;55.67;;
73585;SDS011;61865;50.232;18.614;2024-01-06T08:12:39;112.40;;;53.50;;
73585;SDS011;61865;50.232;18.614;2024-01-06T08:15:02;122.70;;;57.33;;
73585;SDS011;61865;50.232;18.614;2024-01-06T08:17:24;108.18;;;52.40;;
73585;SDS011;61865;50.232;18.614;2024-01-06T08:19:47;100.85;;;49.67;;
73585;SDS011;61865;50.232;18.614;2024-01-06T08:22:10;107.03;;;49.92;;
73585;SDS011;61865;50.232;18.614;2024-01-06T08:24:32;113.47;;;53.63;;
73585;SDS011;61865;50.232;18.614;2024-01-06T08:26:54;120.38;;;52.83;;
73585;SDS011;61865;50.232;18.614;2024-01-06T08:29:18;118.28;;;52.13;;
73585;SDS011;61865;50.232;18.614;2024-01-06T08:31:41;104.15;;;51.20;;
73585;SDS011;61865;50.232;18.614;2024-01-06T08:34:03;119.53;;;57.15;;
73585;SDS011;61865;50.232;18.614;2024-01-06T08:36:26;101.50;;;46.35;;
73585;SDS011;61865;50.232;18.614;2024-01-06T08:38:48;126.10;;;57.42;;
73585;SDS011;61865;50.232;18.614;2024-01-06T08:41:10;150.88;;;67.63;;
73585;SDS011;61865;50.232;18.614;2024-01-06T08:43:36;147.55;;;64.70;;
73585;SDS011;61865;50.232;18.614;2024-01-06T08:45:59;94.95;;;48.90;;
73585;SDS011;61865;50.232;18.614;2024-01-06T08:48:22;100.05;;;48.53;;
73585;SDS011;61865;50.232;18.614;2024-01-06T08:50:44;82.72;;;44.03;;
73585;SDS011;61865;50.232;18.614;2024-01-06T08:53:06;104.00;;;50.38;;
73585;SDS011;61865;50.232;18.614;2024-01-06T08:55:29;101.70;;;51.17;;
73585;SDS011;61865;50.232;18.614;2024-01-06T08:57:51;96.05;;;49.55;;
73585;SDS011;61865;50.232;18.614;2024-01-06T09:00:14;108.18;;;51.47;;
73585;SDS011;61865;50.232;18.614;2024-01-06T09:02:38;93.70;;;43.10;;
73585;SDS011;61865;50.232;18.614;2024-01-06T09:05:01;105.97;;;49.42;;
73585;SDS011;61865;50.232;18.614;2024-01-06T09:07:23;120.10;;;61.40;;
73585;SDS011;61865;50.232;18.614;2024-01-06T09:09:45;127.32;;;60.90;;
73585;SDS011;61865;50.232;18.614;2024-01-06T09:12:08;119.20;;;54.53;;
73585;SDS011;61865;50.232;18.614;2024-01-06T09:14:30;100.20;;;50.17;;
73585;SDS011;61865;50.232;18.614;2024-01-06T09:16:52;117.45;;;59.15;;
73585;SDS011;61865;50.232;18.614;2024-01-06T09:19:16;118.07;;;56.90;;
73585;SDS011;61865;50.232;18.614;2024-01-06T09:21:38;109.20;;;54.25;;
73585;SDS011;61865;50.232;18.614;2024-01-06T09:24:01;124.68;;;58.70;;
73585;SDS011;61865;50.232;18.614;2024-01-06T09:26:26;100.32;;;47.65;;
73585;SDS011;61865;50.232;18.614;2024-01-06T09:28:48;114.03;;;55.20;;
73585;SDS011;61865;50.232;18.614;2024-01-06T09:31:11;111.07;;;51.08;;
73585;SDS011;61865;50.232;18.614;2024-01-06T09:33:33;110.85;;;54.72;;
73585;SDS011;61865;50.232;18.614;2024-01-06T09:35:57;111.97;;;55.45;;
73585;SDS011;61865;50.232;18.614;2024-01-06T09:38:20;114.43;;;57.22;;
73585;SDS011;61865;50.232;18.614;2024-01-06T09:40:42;115.75;;;57.15;;
73585;SDS011;61865;50.232;18.614;2024-01-06T09:43:04;137.10;;;64.55;;
73585;SDS011;61865;50.232;18.614;2024-01-06T09:45:27;102.07;;;50.58;;
73585;SDS011;61865;50.232;18.614;2024-01-06T09:47:51;70.85;;;34.72;;
73585;SDS011;61865;50.232;18.614;2024-01-06T09:50:13;107.25;;;54.35;;
73585;SDS011;61865;50.232;18.614;2024-01-06T09:52:39;109.55;;;54.90;;
73585;SDS011;61865;50.232;18.614;2024-01-06T09:55:02;84.38;;;46.40;;
73585;SDS011;61865;50.232;18.614;2024-01-06T09:57:25;116.78;;;57.70;;
73585;SDS011;61865;50.232;18.614;2024-01-06T09:59:48;103.53;;;51.88;;
73585;SDS011;61865;50.232;18.614;2024-01-06T10:02:12;133.40;;;62.40;;
73585;SDS011;61865;50.232;18.614;2024-01-06T10:04:36;151.13;;;70.22;;
73585;SDS011;61865;50.232;18.614;2024-01-06T10:06:58;137.80;;;64.32;;
73585;SDS011;61865;50.232;18.614;2024-01-06T10:09:27;137.20;;;71.25;;
73585;SDS011;61865;50.232;18.614;2024-01-06T10:11:49;134.65;;;63.15;;
73585;SDS011;61865;50.232;18.614;2024-01-06T10:14:11;144.00;;;71.03;;
73585;SDS011;61865;50.232;18.614;2024-01-06T10:16:34;135.50;;;67.13;;
73585;SDS011;61865;50.232;18.614;2024-01-06T10:18:56;134.07;;;62.47;;
73585;SDS011;61865;50.232;18.614;2024-01-06T10:21:19;144.00;;;70.15;;
73585;SDS011;61865;50.232;18.614;2024-01-06T10:23:42;124.25;;;59.63;;
73585;SDS011;61865;50.232;18.614;2024-01-06T10:26:07;140.75;;;66.22;;
73585;SDS011;61865;50.232;18.614;2024-01-06T10:28:29;132.98;;;67.70;;
73585;SDS011;61865;50.232;18.614;2024-01-06T10:30:52;146.60;;;66.72;;
73585;SDS011;61865;50.232;18.614;2024-01-06T10:33:15;129.70;;;57.92;;
73585;SDS011;61865;50.232;18.614;2024-01-06T10:35:40;143.27;;;63.47;;
73585;SDS011;61865;50.232;18.614;2024-01-06T10:38:06;121.05;;;60.58;;
73585;SDS011;61865;50.232;18.614;2024-01-06T10:40:28;137.93;;;62.72;;
73585;SDS011;61865;50.232;18.614;2024-01-06T10:42:55;123.15;;;59.97;;
73585;SDS011;61865;50.232;18.614;2024-01-06T10:45:18;128.85;;;60.70;;
73585;SDS011;61865;50.232;18.614;2024-01-06T10:47:43;114.22;;;56.47;;
73585;SDS011;61865;50.232;18.614;2024-01-06T10:50:12;136.25;;;68.38;;
73585;SDS011;61865;50.232;18.614;2024-01-06T10:52:37;153.73;;;70.30;;
73585;SDS011;61865;50.232;18.614;2024-01-06T10:55:06;141.07;;;66.75;;
73585;SDS011;61865;50.232;18.614;2024-01-06T10:57:31;135.93;;;63.80;;
73585;SDS011;61865;50.232;18.614;2024-01-06T10:59:55;145.13;;;64.43;;
73585;SDS011;61865;50.232;18.614;2024-01-06T11:02:19;152.27;;;67.35;;
73585;SDS011;61865;50.232;18.614;2024-01-06T11:04:42;112.35;;;53.20;;
73585;SDS011;61865;50.232;18.614;2024-01-06T11:07:04;163.95;;;68.65;;
73585;SDS011;61865;50.232;18.614;2024-01-06T11:09:29;166.23;;;77.15;;
73585;SDS011;61865;50.232;18.614;2024-01-06T11:11:53;113.38;;;51.45;;
73585;SDS011;61865;50.232;18.614;2024-01-06T11:14:20;157.55;;;67.40;;
73585;SDS011;61865;50.232;18.614;2024-01-06T11:16:43;152.88;;;65.72;;
73585;SDS011;61865;50.232;18.614;2024-01-06T11:19:41;158.43;;;72.05;;
73585;SDS011;61865;50.232;18.614;2024-01-06T11:21:56;119.25;;;57.03;;
73585;SDS011;61865;50.232;18.614;2024-01-06T11:24:18;127.88;;;59.35;;
73585;SDS011;61865;50.232;18.614;2024-01-06T11:26:45;153.73;;;63.88;;
73585;SDS011;61865;50.232;18.614;2024-01-06T11:29:07;143.43;;;64.03;;
73585;SDS011;61865;50.232;18.614;2024-01-06T11:31:30;152.98;;;68.22;;
73585;SDS011;61865;50.232;18.614;2024-01-06T11:33:54;62.50;;;37.30;;
73585;SDS011;61865;50.232;18.614;2024-01-06T11:36:17;126.68;;;53.97;;
73585;SDS011;61865;50.232;18.614;2024-01-06T11:38:42;78.35;;;38.47;;
73585;SDS011;61865;50.232;18.614;2024-01-06T11:41:10;166.15;;;76.60;;
73585;SDS011;61865;50.232;18.614;2024-01-06T11:43:52;143.00;;;68.55;;
73585;SDS011;61865;50.232;18.614;2024-01-06T11:46:15;140.65;;;64.20;;
73585;SDS011;61865;50.232;18.614;2024-01-06T11:48:38;122.18;;;57.28;;
73585;SDS011;61865;50.232;18.614;2024-01-06T11:51:06;169.90;;;69.45;;
73585;SDS011;61865;50.232;18.614;2024-01-06T11:53:29;138.40;;;62.53;;
73585;SDS011;61865;50.232;18.614;2024-01-06T11:55:51;186.07;;;80.80;;
73585;SDS011;61865;50.232;18.614;2024-01-06T11:58:16;152.13;;;72.28;;
73585;SDS011;61865;50.232;18.614;2024-01-06T12:00:38;176.15;;;79.63;;
73585;SDS011;61865;50.232;18.614;2024-01-06T12:03:01;164.82;;;73.90;;
73585;SDS011;61865;50.232;18.614;2024-01-06T12:05:23;168.75;;;79.28;;
73585;SDS011;61865;50.232;18.614;2024-01-06T12:07:54;170.25;;;75.45;;
73585;SDS011;61865;50.232;18.614;2024-01-06T12:10:19;204.57;;;87.10;;
73585;SDS011;61865;50.232;18.614;2024-01-06T12:12:54;157.88;;;70.45;;
73585;SDS011;61865;50.232;18.614;2024-01-06T12:15:16;160.15;;;68.95;;
73585;SDS011;61865;50.232;18.614;2024-01-06T12:17:38;178.77;;;78.95;;
73585;SDS011;61865;50.232;18.614;2024-01-06T12:20:02;167.50;;;70.68;;
73585;SDS011;61865;50.232;18.614;2024-01-06T12:22:25;155.63;;;69.88;;
73585;SDS011;61865;50.232;18.614;2024-01-06T12:24:50;164.02;;;67.70;;
73585;SDS011;61865;50.232;18.614;2024-01-06T12:27:12;125.22;;;55.03;;
73585;SDS011;61865;50.232;18.614;2024-01-06T12:29:36;160.23;;;68.53;;
73585;SDS011;61865;50.232;18.614;2024-01-06T12:32:00;111.93;;;49.75;;
73585;SDS011;61865;50.232;18.614;2024-01-06T12:34:22;141.13;;;62.92;;
73585;SDS011;61865;50.232;18.614;2024-01-06T12:36:44;113.88;;;54.90;;
73585;SDS011;61865;50.232;18.614;2024-01-06T12:39:09;164.10;;;69.63;;
73585;SDS011;61865;50.232;18.614;2024-01-06T12:41:35;145.15;;;65.78;;
73585;SDS011;61865;50.232;18.614;2024-01-06T12:43:58;164.10;;;73.50;;
73585;SDS011;61865;50.232;18.614;2024-01-06T12:46:21;140.50;;;59.53;;
73585;SDS011;61865;50.232;18.614;2024-01-06T12:48:44;116.35;;;48.65;;
73585;SDS011;61865;50.232;18.614;2024-01-06T12:51:06;145.25;;;69.30;;
73585;SDS011;61865;50.232;18.614;2024-01-06T12:53:28;104.95;;;51.90;;
73585;SDS011;61865;50.232;18.614;2024-01-06T12:55:51;135.75;;;56.67;;
73585;SDS011;61865;50.232;18.614;2024-01-06T12:58:14;150.75;;;64.82;;
73585;SDS011;61865;50.232;18.614;2024-01-06T13:00:36;141.10;;;60.28;;
73585;SDS011;61865;50.232;18.614;2024-01-06T13:03:00;110.82;;;49.78;;
73585;SDS011;61865;50.232;18.614;2024-01-06T13:05:22;100.68;;;40.40;;
73585;SDS011;61865;50.232;18.614;2024-01-06T13:07:44;124.38;;;52.72;;
73585;SDS011;61865;50.232;18.614;2024-01-06T13:10:07;93.90;;;42.50;;
73585;SDS011;61865;50.232;18.614;2024-01-06T13:12:30;120.78;;;53.70;;
73585;SDS011;61865;50.232;18.614;2024-01-06T13:14:54;88.97;;;40.20;;
73585;SDS011;61865;50.232;18.614;2024-01-06T13:17:16;130.10;;;56.90;;
73585;SDS011;61865;50.232;18.614;2024-01-06T13:19:38;95.35;;;44.38;;
73585;SDS011;61865;50.232;18.614;2024-01-06T13:22:01;59.72;;;30.30;;
73585;SDS011;61865;50.232;18.614;2024-01-06T13:24:23;117.22;;;51.97;;
73585;SDS011;61865;50.232;18.614;2024-01-06T13:26:45;92.63;;;43.83;;
73585;SDS011;61865;50.232;18.614;2024-01-06T13:29:08;92.50;;;42.55;;
73585;SDS011;61865;50.232;18.614;2024-01-06T13:31:32;91.90;;;40.70;;
73585;SDS011;61865;50.232;18.614;2024-01-06T13:33:54;96.80;;;44.83;;
73585;SDS011;61865;50.232;18.614;2024-01-06T13:36:16;72.32;;;33.38;;
73585;SDS011;61865;50.232;18.614;2024-01-06T13:38:39;72.55;;;37.88;;
73585;SDS011;61865;50.232;18.614;2024-01-06T13:41:01;71.88;;;36.00;;